sensor_id;sensor_type;location;lat;lon;timestamp;pressure;altitude;pressure_sealevel;temperature;humidity
66681;BME280;53575;51.366;12.350;2022-10-31T00:00:17;100686.66;;;12.58;97.67
66681;BME280;53575;51.366;12.350;2022-10-31T00:02:43;100694.53;;;12.56;96.66
66681;BME280;53575;51.366;12.350;2022-10-31T00:05:08;100692.69;;;12.66;94.96
66681;BME280;53575;51.366;12.350;2022-10-31T00:07:33;100697.09;;;12.62;95.87
66681;BME280;53575;51.366;12.350;2022-10-31T00:09:59;100693.72;;;12.48;97.16
66681;BME280;53575;51.366;12.350;2022-10-31T00:12:26;100692.97;;;12.34;98.53
66681;BME280;53575;51.366;12.350;2022-10-31T00:14:51;100694.69;;;12.36;97.59
66681;BME280;53575;51.366;12.350;2022-10-31T00:17:17;100690.44;;;12.18;98.81
66681;BME280;53575;51.366;12.350;2022-10-31T00:19:42;100696.56;;;12.19;98.53
66681;BME280;53575;51.366;12.350;2022-10-31T00:22:08;100701.78;;;12.20;97.11
66681;BME280;53575;51.366;12.350;2022-10-31T00:24:33;100700.94;;;12.15;97.55
66681;BME280;53575;51.366;12.350;2022-10-31T00:26:59;100691.38;;;12.10;98.92
66681;BME280;53575;51.366;12.350;2022-10-31T00:29:24;100698.25;;;12.26;98.02
66681;BME280;53575;51.366;12.350;2022-10-31T00:31:49;100693.09;;;12.14;98.29
66681;BME280;53575;51.366;12.350;2022-10-31T00:34:15;100703.63;;;12.02;99.04
66681;BME280;53575;51.366;12.350;2022-10-31T00:36:40;100711.53;;;11.97;100.00
66681;BME280;53575;51.366;12.350;2022-10-31T00:39:06;100709.81;;;11.90;100.00
66681;BME280;53575;51.366;12.350;2022-10-31T00:41:31;100708.09;;;11.81;100.00
66681;BME280;53575;51.366;12.350;2022-10-31T00:43:56;100704.59;;;11.88;100.00
66681;BME280;53575;51.366;12.350;2022-10-31T00:46:22;100709.00;;;11.73;100.00
66681;BME280;53575;51.366;12.350;2022-10-31T00:48:47;100714.22;;;11.74;100.00
66681;BME280;53575;51.366;12.350;2022-10-31T00:51:13;100711.66;;;11.63;100.00
66681;BME280;53575;51.366;12.350;2022-10-31T00:53:38;100721.25;;;11.63;100.00
66681;BME280;53575;51.366;12.350;2022-10-31T00:56:04;100720.41;;;11.61;100.00
66681;BME280;53575;51.366;12.350;2022-10-31T00:58:29;100719.53;;;11.62;100.00
66681;BME280;53575;51.366;12.350;2022-10-31T01:00:55;100719.53;;;11.57;100.00
66681;BME280;53575;51.366;12.350;2022-10-31T01:03:25;100721.31;;;11.47;100.00
66681;BME280;53575;51.366;12.350;2022-10-31T01:06:02;100723.94;;;11.43;100.00
66681;BME280;53575;51.366;12.350;2022-10-31T01:08:28;100719.56;;;11.43;100.00
66681;BME280;53575;51.366;12.350;2022-10-31T01:11:07;100723.94;;;11.40;100.00
66681;BME280;53575;51.366;12.350;2022-10-31T01:13:34;100728.31;;;11.36;100.00
66681;BME280;53575;51.366;12.350;2022-10-31T01:16:00;100731.81;;;11.41;100.00
66681;BME280;53575;51.366;12.350;2022-10-31T01:18:27;100732.69;;;11.39;100.00
66681;BME280;53575;51.366;12.350;2022-10-31T01:21:06;100729.19;;;11.35;100.00
66681;BME280;53575;51.366;12.350;2022-10-31T01:23:32;100733.59;;;11.33;100.00
66681;BME280;53575;51.366;12.350;2022-10-31T01:28:32;100725.69;;;11.36;100.00
66681;BME280;53575;51.366;12.350;2022-10-31T01:31:03;100729.22;;;11.28;100.00
66681;BME280;53575;51.366;12.350;2022-10-31T01:33:29;100720.50;;;11.18;100.00
66681;BME280;53575;51.366;12.350;2022-10-31T01:35:55;100731.88;;;11.18;100.00
66681;BME280;53575;51.366;12.350;2022-10-31T01:38:20;100732.72;;;11.16;100.00
66681;BME280;53575;51.366;12.350;2022-10-31T01:40:45;100724.91;;;11.08;100.00
66681;BME280;53575;51.366;12.350;2022-10-31T01:43:14;100724.03;;;11.11;100.00
66681;BME280;53575;51.366;12.350;2022-10-31T01:45:46;100723.13;;;11.10;100.00
66681;BME280;53575;51.366;12.350;2022-10-31T01:48:17;100727.53;;;10.99;100.00
66681;BME280;53575;51.366;12.350;2022-10-31T01:50:46;100731.00;;;11.04;100.00
66681;BME280;53575;51.366;12.350;2022-10-31T01:53:14;100731.00;;;11.06;100.00
66681;BME280;53575;51.366;12.350;2022-10-31T01:55:42;100731.88;;;10.97;100.00
66681;BME280;53575;51.366;12.350;2022-10-31T01:58:15;100727.53;;;10.96;100.00
66681;BME280;53575;51.366;12.350;2022-10-31T02:00:45;100736.25;;;10.87;100.00
66681;BME280;53575;51.366;12.350;2022-10-31T02:03:11;100732.78;;;10.93;100.00
66681;BME280;53575;51.366;12.350;2022-10-31T02:05:37;100724.03;;;10.91;100.00
66681;BME280;53575;51.366;12.350;2022-10-31T02:08:07;100728.41;;;10.92;100.00
66681;BME280;53575;51.366;12.350;2022-10-31T02:10:36;100729.28;;;11.00;100.00
66681;BME280;53575;51.366;12.350;2022-10-31T02:13:04;100727.53;;;10.85;100.00
66681;BME280;53575;51.366;12.350;2022-10-31T02:15:31;100731.03;;;10.67;100.00
66681;BME280;53575;51.366;12.350;2022-10-31T02:17:57;100729.31;;;10.65;100.00
66681;BME280;53575;51.366;12.350;2022-10-31T02:20:25;100738.88;;;10.55;100.00
66681;BME280;53575;51.366;12.350;2022-10-31T02:26:07;100738.00;;;10.50;100.00
66681;BME280;53575;51.366;12.350;2022-10-31T02:34:18;100737.09;;;10.40;100.00
66681;BME280;53575;51.366;12.350;2022-10-31T02:37:12;100743.19;;;10.38;100.00
66681;BME280;53575;51.366;12.350;2022-10-31T02:40:03;100730.16;;;10.35;100.00
66681;BME280;53575;51.366;12.350;2022-10-31T02:42:47;100739.72;;;10.39;100.00
66681;BME280;53575;51.366;12.350;2022-10-31T02:45:35;100743.22;;;10.44;100.00
66681;BME280;53575;51.366;12.350;2022-10-31T02:48:09;100753.66;;;10.42;100.00
66681;BME280;53575;51.366;12.350;2022-10-31T02:50:40;100748.41;;;10.38;100.00
66681;BME280;53575;51.366;12.350;2022-10-31T02:53:06;100751.03;;;10.39;100.00
66681;BME280;53575;51.366;12.350;2022-10-31T02:58:03;100755.38;;;10.27;100.00
66681;BME280;53575;51.366;12.350;2022-10-31T03:00:54;100753.63;;;10.30;100.00
66681;BME280;53575;51.366;12.350;2022-10-31T03:03:30;100760.59;;;10.30;100.00
66681;BME280;53575;51.366;12.350;2022-10-31T03:06:00;100764.94;;;10.26;100.00
66681;BME280;53575;51.366;12.350;2022-10-31T03:08:41;100772.78;;;10.28;100.00
66681;BME280;53575;51.366;12.350;2022-10-31T03:11:12;100764.91;;;10.24;100.00
66681;BME280;53575;51.366;12.350;2022-10-31T03:13:51;100769.25;;;10.18;100.00
66681;BME280;53575;51.366;12.350;2022-10-31T03:16:50;100769.25;;;10.21;100.00
66681;BME280;53575;51.366;12.350;2022-10-31T03:19:25;100768.38;;;10.11;100.00
66681;BME280;53575;51.366;12.350;2022-10-31T03:21:59;100772.72;;;10.21;100.00
66681;BME280;53575;51.366;12.350;2022-10-31T03:24:30;100770.13;;;10.20;100.00
66681;BME280;53575;51.366;12.350;2022-10-31T03:26:57;100777.94;;;10.17;100.00
66681;BME280;53575;51.366;12.350;2022-10-31T03:29:27;100771.84;;;10.15;100.00
66681;BME280;53575;51.366;12.350;2022-10-31T03:31:57;100774.41;;;10.07;100.00
66681;BME280;53575;51.366;12.350;2022-10-31T03:34:25;100775.34;;;10.15;100.00
66681;BME280;53575;51.366;12.350;2022-10-31T03:36:55;100771.84;;;10.16;100.00
66681;BME280;53575;51.366;12.350;2022-10-31T03:39:22;100777.06;;;10.10;100.00
66681;BME280;53575;51.366;12.350;2022-10-31T03:42:04;100774.44;;;10.15;100.00
66681;BME280;53575;51.366;12.350;2022-10-31T03:44:32;100777.91;;;10.03;100.00
66681;BME280;53575;51.366;12.350;2022-10-31T03:46:59;100785.78;;;10.08;100.00
66681;BME280;53575;51.366;12.350;2022-10-31T03:49:25;100781.41;;;10.08;100.00
66681;BME280;53575;51.366;12.350;2022-10-31T03:51:57;100792.75;;;10.12;100.00
66681;BME280;53575;51.366;12.350;2022-10-31T03:54:27;100792.66;;;9.99;100.00
66681;BME280;53575;51.366;12.350;2022-10-31T03:57:02;100784.03;;;10.13;100.00
66681;BME280;53575;51.366;12.350;2022-10-31T03:59:36;100790.06;;;9.99;100.00
66681;BME280;53575;51.366;12.350;2022-10-31T04:02:11;100797.84;;;9.86;100.00
66681;BME280;53575;51.366;12.350;2022-10-31T04:04:38;100798.78;;;9.98;100.00
66681;BME280;53575;51.366;12.350;2022-10-31T04:07:05;100791.75;;;9.87;100.00
66681;BME280;53575;51.366;12.350;2022-10-31T04:09:34;100790.97;;;10.05;100.00
66681;BME280;53575;51.366;12.350;2022-10-31T04:12:01;100791.78;;;9.91;100.00
66681;BME280;53575;51.366;12.350;2022-10-31T04:14:31;100790.94;;;9.97;100.00
66681;BME280;53575;51.366;12.350;2022-10-31T04:16:57;100794.41;;;9.88;100.00
66681;BME280;53575;51.366;12.350;2022-10-31T04:19:23;100795.28;;;9.98;100.00
66681;BME280;53575;51.366;12.350;2022-10-31T04:21:49;100798.78;;;10.00;100.00
66681;BME280;53575;51.366;12.350;2022-10-31T04:24:14;100810.91;;;9.87;100.00
66681;BME280;53575;51.366;12.350;2022-10-31T04:26:39;100800.53;;;10.07;100.00
66681;BME280;53575;51.366;12.350;2022-10-31T04:29:05;100808.41;;;10.09;100.00
66681;BME280;53575;51.366;12.350;2022-10-31T04:31:30;100803.09;;;9.95;100.00
66681;BME280;53575;51.366;12.350;2022-10-31T04:33:55;100801.28;;;9.80;100.00
66681;BME280;53575;51.366;12.350;2022-10-31T04:36:21;100808.25;;;9.80;100.00
66681;BME280;53575;51.366;12.350;2022-10-31T04:38:46;100808.22;;;9.72;100.00
66681;BME280;53575;51.366;12.350;2022-10-31T04:41:12;100811.69;;;9.71;100.00
66681;BME280;53575;51.366;12.350;2022-10-31T04:43:37;100817.75;;;9.62;100.00
66681;BME280;53575;51.366;12.350;2022-10-31T04:46:02;100821.34;;;9.86;100.00
66681;BME280;53575;51.366;12.350;2022-10-31T04:48:28;100828.25;;;9.73;100.00
66681;BME280;53575;51.366;12.350;2022-10-31T04:50:59;100827.34;;;9.72;100.00
66681;BME280;53575;51.366;12.350;2022-10-31T04:53:24;100816.06;;;9.70;100.00
66681;BME280;53575;51.366;12.350;2022-10-31T04:55:50;100823.06;;;9.77;100.00
66681;BME280;53575;51.366;12.350;2022-10-31T04:58:15;100823.03;;;9.74;100.00
66681;BME280;53575;51.366;12.350;2022-10-31T05:00:40;100825.56;;;9.61;100.00
66681;BME280;53575;51.366;12.350;2022-10-31T05:03:06;100827.31;;;9.65;100.00
66681;BME280;53575;51.366;12.350;2022-10-31T05:05:31;100826.34;;;9.47;100.00
66681;BME280;53575;51.366;12.350;2022-10-31T05:07:56;100818.53;;;9.47;100.00
66681;BME280;53575;51.366;12.350;2022-10-31T05:10:25;100823.78;;;9.55;100.00
66681;BME280;53575;51.366;12.350;2022-10-31T05:12:53;100825.53;;;9.55;100.00
66681;BME280;53575;51.366;12.350;2022-10-31T05:15:20;100820.25;;;9.47;100.00
66681;BME280;53575;51.366;12.350;2022-10-31T05:17:46;100815.00;;;9.41;100.00
66681;BME280;53575;51.366;12.350;2022-10-31T05:20:13;100827.25;;;9.51;100.00
66681;BME280;53575;51.366;12.350;2022-10-31T05:22:43;100822.84;;;9.44;100.00
66681;BME280;53575;51.366;12.350;2022-10-31T05:25:10;100819.28;;;9.34;100.00
66681;BME280;53575;51.366;12.350;2022-10-31T05:27:38;100816.81;;;9.51;100.00
66681;BME280;53575;51.366;12.350;2022-10-31T05:30:04;100820.28;;;9.51;100.00
66681;BME280;53575;51.366;12.350;2022-10-31T05:32:30;100819.34;;;9.40;100.00
66681;BME280;53575;51.366;12.350;2022-10-31T05:34:55;100808.91;;;9.42;100.00
66681;BME280;53575;51.366;12.350;2022-10-31T05:37:20;100815.00;;;9.41;100.00
66681;BME280;53575;51.366;12.350;2022-10-31T05:39:46;100821.09;;;9.46;100.00
66681;BME280;53575;51.366;12.350;2022-10-31T05:42:11;100823.66;;;9.37;100.00
66681;BME280;53575;51.366;12.350;2022-10-31T05:44:36;100822.81;;;9.39;100.00
66681;BME280;53575;51.366;12.350;2022-10-31T05:47:02;100830.75;;;9.55;100.00
66681;BME280;53575;51.366;12.350;2022-10-31T05:49:27;100819.25;;;9.25;100.00
66681;BME280;53575;51.366;12.350;2022-10-31T05:51:53;100822.69;;;9.22;100.00
66681;BME280;53575;51.366;12.350;2022-10-31T05:54:18;100818.41;;;9.32;100.00
66681;BME280;53575;51.366;12.350;2022-10-31T05:56:43;100814.03;;;9.25;100.00
66681;BME280;53575;51.366;12.350;2022-10-31T05:59:09;100818.41;;;9.27;100.00
66681;BME280;53575;51.366;12.350;2022-10-31T06:01:34;100820.97;;;9.24;100.00
66681;BME280;53575;51.366;12.350;2022-10-31T06:03:59;100819.25;;;9.28;100.00
66681;BME280;53575;51.366;12.350;2022-10-31T06:06:25;100833.25;;;9.41;100.00
66681;BME280;53575;51.366;12.350;2022-10-31T06:08:50;100826.31;;;9.43;100.00
66681;BME280;53575;51.366;12.350;2022-10-31T06:11:15;100831.53;;;9.43;100.00
66681;BME280;53575;51.366;12.350;2022-10-31T06:13:41;100834.13;;;9.40;100.00
66681;BME280;53575;51.366;12.350;2022-10-31T06:16:06;100839.31;;;9.35;100.00
66681;BME280;53575;51.366;12.350;2022-10-31T06:18:31;100835.84;;;9.36;100.00
66681;BME280;53575;51.366;12.350;2022-10-31T06:20:57;100844.63;;;9.53;100.00
66681;BME280;53575;51.366;12.350;2022-10-31T06:23:22;100847.19;;;9.43;100.00
66681;BME280;53575;51.366;12.350;2022-10-31T06:25:49;100844.50;;;9.32;100.00
66681;BME280;53575;51.366;12.350;2022-10-31T06:28:15;100851.47;;;9.38;100.00
66681;BME280;53575;51.366;12.350;2022-10-31T06:30:40;100852.50;;;9.61;100.00
66681;BME280;53575;51.366;12.350;2022-10-31T06:33:05;100852.50;;;9.60;100.00
66681;BME280;53575;51.366;12.350;2022-10-31T06:35:31;100850.00;;;9.73;100.00
66681;BME280;53575;51.366;12.350;2022-10-31T06:37:57;100859.47;;;9.59;100.00
66681;BME280;53575;51.366;12.350;2022-10-31T06:40:22;100869.94;;;9.65;100.00
66681;BME280;53575;51.366;12.350;2022-10-31T06:42:56;100862.97;;;9.64;100.00
66681;BME280;53575;51.366;12.350;2022-10-31T06:45:22;100871.66;;;9.65;100.00
66681;BME280;53575;51.366;12.350;2022-10-31T06:47:54;100875.16;;;9.64;100.00
66681;BME280;53575;51.366;12.350;2022-10-31T06:50:21;100877.00;;;9.77;100.00
66681;BME280;53575;51.366;12.350;2022-10-31T06:52:54;100877.00;;;9.83;100.00
66681;BME280;53575;51.366;12.350;2022-10-31T06:55:20;100871.88;;;10.03;100.00
66681;BME280;53575;51.366;12.350;2022-10-31T06:57:58;100883.22;;;10.07;100.00
66681;BME280;53575;51.366;12.350;2022-10-31T07:00:25;100883.25;;;10.14;100.00
66681;BME280;53575;51.366;12.350;2022-10-31T07:03:02;100882.41;;;10.18;100.00
66681;BME280;53575;51.366;12.350;2022-10-31T07:05:28;100882.47;;;10.23;100.00
66681;BME280;53575;51.366;12.350;2022-10-31T07:07:55;100883.34;;;10.25;100.00
66681;BME280;53575;51.366;12.350;2022-10-31T07:10:22;100879.09;;;10.47;100.00
66681;BME280;53575;51.366;12.350;2022-10-31T07:12:48;100873.91;;;10.62;100.00
66681;BME280;53575;51.366;12.350;2022-10-31T07:15:13;100880.91;;;10.69;100.00
66681;BME280;53575;51.366;12.350;2022-10-31T07:17:39;100891.34;;;10.69;100.00
66681;BME280;53575;51.366;12.350;2022-10-31T07:20:05;100889.63;;;10.76;100.00
66681;BME280;53575;51.366;12.350;2022-10-31T07:22:37;100897.47;;;10.76;100.00
66681;BME280;53575;51.366;12.350;2022-10-31T07:25:02;100899.25;;;10.89;100.00
66681;BME280;53575;51.366;12.350;2022-10-31T07:27:28;100901.88;;;10.92;100.00
66681;BME280;53575;51.366;12.350;2022-10-31T07:29:53;100897.50;;;10.85;100.00
66681;BME280;53575;51.366;12.350;2022-10-31T07:32:18;100904.50;;;10.95;100.00
66681;BME280;53575;51.366;12.350;2022-10-31T07:34:44;100899.25;;;10.95;100.00
66681;BME280;53575;51.366;12.350;2022-10-31T07:37:09;100907.94;;;10.87;100.00
66681;BME280;53575;51.366;12.350;2022-10-31T07:39:35;100907.09;;;10.95;100.00
66681;BME280;53575;51.366;12.350;2022-10-31T07:42:01;100910.59;;;10.96;100.00
66681;BME280;53575;51.366;12.350;2022-10-31T07:44:26;100912.31;;;11.06;100.00
66681;BME280;53575;51.366;12.350;2022-10-31T07:46:51;100913.22;;;11.07;100.00
66681;BME280;53575;51.366;12.350;2022-10-31T07:49:17;100917.59;;;11.15;100.00
66681;BME280;53575;51.366;12.350;2022-10-31T07:51:42;100915.84;;;11.16;100.00
66681;BME280;53575;51.366;12.350;2022-10-31T07:54:07;100911.47;;;11.21;100.00
66681;BME280;53575;51.366;12.350;2022-10-31T07:56:33;100915.84;;;11.31;100.00
66681;BME280;53575;51.366;12.350;2022-10-31T07:58:58;100911.50;;;11.38;100.00
66681;BME280;53575;51.366;12.350;2022-10-31T08:01:23;100905.38;;;11.46;100.00
66681;BME280;53575;51.366;12.350;2022-10-31T08:03:49;100908.00;;;11.50;100.00
66681;BME280;53575;51.366;12.350;2022-10-31T08:06:14;100907.13;;;11.51;100.00
66681;BME280;53575;51.366;12.350;2022-10-31T08:08:39;100900.16;;;11.53;100.00
66681;BME280;53575;51.366;12.350;2022-10-31T08:11:05;100902.75;;;11.62;100.00
66681;BME280;53575;51.366;12.350;2022-10-31T08:13:30;100901.88;;;11.67;100.00
66681;BME280;53575;51.366;12.350;2022-10-31T08:15:57;100899.22;;;11.83;100.00
66681;BME280;53575;51.366;12.350;2022-10-31T08:18:28;100903.63;;;11.91;100.00
66681;BME280;53575;51.366;12.350;2022-10-31T08:20:54;100899.22;;;12.01;100.00
66681;BME280;53575;51.366;12.350;2022-10-31T08:23:19;100897.47;;;12.14;100.00
66681;BME280;53575;51.366;12.350;2022-10-31T08:25:45;100904.38;;;12.24;100.00
66681;BME280;53575;51.366;12.350;2022-10-31T08:28:13;100905.19;;;12.44;99.21
66681;BME280;53575;51.366;12.350;2022-10-31T08:30:39;100904.22;;;12.65;98.13
66681;BME280;53575;51.366;12.350;2022-10-31T08:33:16;100906.78;;;12.76;97.11
66681;BME280;53575;51.366;12.350;2022-10-31T08:35:42;100906.75;;;12.78;97.08
66681;BME280;53575;51.366;12.350;2022-10-31T08:38:10;100894.47;;;12.90;96.29
66681;BME280;53575;51.366;12.350;2022-10-31T08:40:36;100901.41;;;12.99;95.88
66681;BME280;53575;51.366;12.350;2022-10-31T08:43:12;100900.41;;;13.15;94.60
66681;BME280;53575;51.366;12.350;2022-10-31T08:45:38;100894.19;;;13.32;93.97
66681;BME280;53575;51.366;12.350;2022-10-31T08:48:09;100892.41;;;13.37;93.72
66681;BME280;53575;51.366;12.350;2022-10-31T08:50:35;100895.97;;;13.30;94.33
66681;BME280;53575;51.366;12.350;2022-10-31T08:55:27;100886.25;;;13.39;94.61
66681;BME280;53575;51.366;12.350;2022-10-31T08:57:57;100896.66;;;13.50;94.46
66681;BME280;53575;51.366;12.350;2022-10-31T09:00:23;100892.16;;;13.64;93.68
66681;BME280;53575;51.366;12.350;2022-10-31T09:02:54;100892.81;;;13.85;92.79
66681;BME280;53575;51.366;12.350;2022-10-31T09:05:20;100890.16;;;13.89;92.47
66681;BME280;53575;51.366;12.350;2022-10-31T09:07:45;100883.09;;;13.95;92.71
66681;BME280;53575;51.366;12.350;2022-10-31T09:10:11;100891.69;;;14.07;92.58
66681;BME280;53575;51.366;12.350;2022-10-31T09:12:36;100883.63;;;14.24;92.07
66681;BME280;53575;51.366;12.350;2022-10-31T09:15:02;100887.94;;;14.31;91.86
66681;BME280;53575;51.366;12.350;2022-10-31T09:17:27;100884.25;;;14.45;91.58
66681;BME280;53575;51.366;12.350;2022-10-31T09:19:54;100878.78;;;14.63;90.82
66681;BME280;53575;51.366;12.350;2022-10-31T09:22:19;100880.50;;;14.64;90.98
66681;BME280;53575;51.366;12.350;2022-10-31T09:24:45;100875.13;;;14.72;91.13
66681;BME280;53575;51.366;12.350;2022-10-31T09:27:10;100880.22;;;14.85;91.69
66681;BME280;53575;51.366;12.350;2022-10-31T09:29:35;100881.00;;;14.91;91.20
66681;BME280;53575;51.366;12.350;2022-10-31T09:32:01;100877.31;;;15.04;91.45
66681;BME280;53575;51.366;12.350;2022-10-31T09:34:26;100881.63;;;15.06;91.38
66681;BME280;53575;51.366;12.350;2022-10-31T09:36:52;100871.69;;;15.25;93.13
66681;BME280;53575;51.366;12.350;2022-10-31T09:39:18;100872.38;;;15.38;95.42
66681;BME280;53575;51.366;12.350;2022-10-31T09:42:04;100864.34;;;15.44;96.90
66681;BME280;53575;51.366;12.350;2022-10-31T09:44:57;100857.03;;;15.60;97.50
66681;BME280;53575;51.366;12.350;2022-10-31T09:50:26;100848.00;;;15.75;97.20
66681;BME280;53575;51.366;12.350;2022-10-31T09:53:01;100854.75;;;15.90;96.34
66681;BME280;53575;51.366;12.350;2022-10-31T09:55:35;100854.72;;;15.93;96.50
66681;BME280;53575;51.366;12.350;2022-10-31T09:58:01;100853.69;;;15.98;95.90
66681;BME280;53575;51.366;12.350;2022-10-31T10:00:28;100854.63;;;15.97;96.69
66681;BME280;53575;51.366;12.350;2022-10-31T10:08:20;100857.66;;;16.21;95.54
66681;BME280;53575;51.366;12.350;2022-10-31T10:16:16;100852.25;;;16.27;95.10
66681;BME280;53575;51.366;12.350;2022-10-31T10:29:42;100856.13;;;16.51;93.81
66681;BME280;53575;51.366;12.350;2022-10-31T10:32:23;100858.66;;;16.57;93.39
66681;BME280;53575;51.366;12.350;2022-10-31T10:34:53;100848.03;;;16.60;93.23
66681;BME280;53575;51.366;12.350;2022-10-31T10:37:24;100852.25;;;16.67;92.97
66681;BME280;53575;51.366;12.350;2022-10-31T10:39:56;100855.84;;;16.65;92.77
66681;BME280;53575;51.366;12.350;2022-10-31T10:42:26;100857.63;;;16.63;92.99
66681;BME280;53575;51.366;12.350;2022-10-31T10:45:16;100840.94;;;16.62;92.87
66681;BME280;53575;51.366;12.350;2022-10-31T10:48:28;100839.03;;;16.69;92.89
66681;BME280;53575;51.366;12.350;2022-10-31T10:50:57;100838.69;;;16.45;94.01
66681;BME280;53575;51.366;12.350;2022-10-31T10:53:30;100837.59;;;16.54;94.33
66681;BME280;53575;51.366;12.350;2022-10-31T10:56:33;100832.75;;;16.76;93.08
66681;BME280;53575;51.366;12.350;2022-10-31T10:59:02;100831.91;;;16.74;92.90
66681;BME280;53575;51.366;12.350;2022-10-31T11:01:28;100833.50;;;16.81;93.02
66681;BME280;53575;51.366;12.350;2022-10-31T11:03:54;100827.97;;;16.90;92.33
66681;BME280;53575;51.366;12.350;2022-10-31T11:06:22;100815.56;;;16.94;91.99
66681;BME280;53575;51.366;12.350;2022-10-31T11:08:51;100823.13;;;17.09;90.67
66681;BME280;53575;51.366;12.350;2022-10-31T11:13:43;100825.50;;;17.20;90.28
66681;BME280;53575;51.366;12.350;2022-10-31T11:16:12;100818.25;;;17.28;89.60
66681;BME280;53575;51.366;12.350;2022-10-31T11:18:44;100813.94;;;17.25;89.58
66681;BME280;53575;51.366;12.350;2022-10-31T11:21:28;100817.19;;;17.35;88.96
66681;BME280;53575;51.366;12.350;2022-10-31T11:24:15;100816.03;;;17.45;87.86
66681;BME280;53575;51.366;12.350;2022-10-31T11:26:43;100807.06;;;17.51;87.57
66681;BME280;53575;51.366;12.350;2022-10-31T11:31:41;100816.97;;;17.44;89.08
66681;BME280;53575;51.366;12.350;2022-10-31T11:37:01;100803.94;;;17.69;86.89
66681;BME280;53575;51.366;12.350;2022-10-31T11:39:26;100803.59;;;17.83;86.33
66681;BME280;53575;51.366;12.350;2022-10-31T11:41:54;100803.72;;;17.78;86.45
66681;BME280;53575;51.366;12.350;2022-10-31T11:44:25;100791.75;;;17.96;85.58
66681;BME280;53575;51.366;12.350;2022-10-31T11:46:59;100792.22;;;18.11;84.75
66681;BME280;53575;51.366;12.350;2022-10-31T11:52:00;100798.44;;;18.08;84.95
66681;BME280;53575;51.366;12.350;2022-10-31T11:54:29;100791.00;;;17.91;85.51
66681;BME280;53575;51.366;12.350;2022-10-31T11:56:56;100790.38;;;17.83;86.16
66681;BME280;53575;51.366;12.350;2022-10-31T11:59:26;100779.75;;;18.44;83.78
66681;BME280;53575;51.366;12.350;2022-10-31T12:01:53;100784.44;;;18.34;83.75
66681;BME280;53575;51.366;12.350;2022-10-31T12:04:27;100784.91;;;18.19;83.86
66681;BME280;53575;51.366;12.350;2022-10-31T12:06:54;100781.31;;;18.21;84.58
66681;BME280;53575;51.366;12.350;2022-10-31T12:09:26;100778.13;;;18.40;85.17
66681;BME280;53575;51.366;12.350;2022-10-31T12:18:08;100771.16;;;17.76;85.33
66681;BME280;53575;51.366;12.350;2022-10-31T12:20:54;100766.69;;;18.10;84.38
66681;BME280;53575;51.366;12.350;2022-10-31T12:26:50;100760.84;;;18.28;83.46
66681;BME280;53575;51.366;12.350;2022-10-31T12:29:21;100757.03;;;18.37;82.40
66681;BME280;53575;51.366;12.350;2022-10-31T12:32:08;100757.19;;;18.32;82.28
66681;BME280;53575;51.366;12.350;2022-10-31T12:38:15;100739.59;;;18.86;83.96
66681;BME280;53575;51.366;12.350;2022-10-31T12:40:48;100739.69;;;18.83;82.28
66681;BME280;53575;51.366;12.350;2022-10-31T12:46:02;100736.16;;;19.09;81.38
66681;BME280;53575;51.366;12.350;2022-10-31T12:48:42;100728.44;;;19.28;80.65
66681;BME280;53575;51.366;12.350;2022-10-31T12:54:09;100724.03;;;19.27;80.06
66681;BME280;53575;51.366;12.350;2022-10-31T13:02:00;100715.75;;;19.12;81.86
66681;BME280;53575;51.366;12.350;2022-10-31T13:04:55;100708.59;;;19.39;80.93
66681;BME280;53575;51.366;12.350;2022-10-31T13:07:34;100706.38;;;19.02;82.28
66681;BME280;53575;51.366;12.350;2022-10-31T13:10:06;100711.50;;;19.32;81.62
66681;BME280;53575;51.366;12.350;2022-10-31T13:12:34;100706.75;;;18.91;82.49
66681;BME280;53575;51.366;12.350;2022-10-31T13:15:05;100706.97;;;18.85;83.29
66681;BME280;53575;51.366;12.350;2022-10-31T13:17:41;100702.25;;;18.67;83.73
66681;BME280;53575;51.366;12.350;2022-10-31T13:20:28;100706.69;;;18.66;84.34
66681;BME280;53575;51.366;12.350;2022-10-31T13:23:05;100711.00;;;18.69;84.61
66681;BME280;53575;51.366;12.350;2022-10-31T13:25:40;100699.09;;;18.56;84.25
66681;BME280;53575;51.366;12.350;2022-10-31T13:28:31;100698.56;;;18.44;85.59
66681;BME280;53575;51.366;12.350;2022-10-31T13:31:00;100697.03;;;18.37;86.23
66681;BME280;53575;51.366;12.350;2022-10-31T13:33:30;100693.25;;;18.18;87.19
66681;BME280;53575;51.366;12.350;2022-10-31T13:36:06;100688.25;;;18.37;86.69
66681;BME280;53575;51.366;12.350;2022-10-31T13:38:54;100690.22;;;18.30;87.15
66681;BME280;53575;51.366;12.350;2022-10-31T13:42:00;100691.41;;;18.20;87.98
66681;BME280;53575;51.366;12.350;2022-10-31T13:44:29;100683.69;;;18.14;88.06
66681;BME280;53575;51.366;12.350;2022-10-31T13:46:58;100677.13;;;18.25;87.59
66681;BME280;53575;51.366;12.350;2022-10-31T13:52:24;100676.59;;;18.14;87.76
66681;BME280;53575;51.366;12.350;2022-10-31T13:54:52;100678.34;;;18.15;88.06
66681;BME280;53575;51.366;12.350;2022-10-31T13:57:56;100675.66;;;18.17;87.99
66681;BME280;53575;51.366;12.350;2022-10-31T14:00:24;100664.03;;;17.93;89.00
66681;BME280;53575;51.366;12.350;2022-10-31T14:02:56;100667.44;;;17.98;89.13
66681;BME280;53575;51.366;12.350;2022-10-31T14:07:48;100665.72;;;17.66;91.38